createdAt,value
2022-11-15T00:01:19.869Z,68.94
2022-11-15T00:03:26.589Z,68.55
2022-11-15T00:05:28.250Z,68.00
2022-11-15T00:07:53.914Z,68.38
2022-11-15T00:09:51.506Z,68.43
2022-11-15T00:11:53.562Z,68.20
2022-11-15T00:13:58.980Z,68.11
2022-11-15T00:16:02.219Z,68.18
2022-11-15T00:18:04.832Z,68.19
2022-11-15T00:20:06.984Z,68.16
2022-11-15T00:22:08.614Z,68.27
2022-11-15T00:24:10.464Z,68.14
2022-11-15T00:26:16.107Z,67.97
2022-11-15T00:28:17.692Z,68.06
2022-11-15T00:30:19.469Z,67.98
2022-11-15T00:32:21.052Z,67.69
2022-11-15T00:34:22.677Z,67.63
2022-11-15T00:36:24.370Z,67.51
2022-11-15T00:38:26.023Z,67.92
2022-11-15T00:40:27.676Z,67.89
2022-11-15T00:42:32.500Z,68.05
2022-11-15T00:44:34.058Z,67.97
2022-11-15T00:46:35.663Z,67.87
2022-11-15T00:48:37.786Z,67.88
2022-11-15T00:50:39.495Z,68.46
2022-11-15T00:52:41.179Z,68.20
2022-11-15T00:54:42.790Z,68.20
2022-11-15T00:56:44.498Z,68.10
2022-11-15T00:58:46.109Z,68.07
2022-11-15T01:00:47.813Z,67.90
2022-11-15T01:02:49.670Z,67.49
2022-11-15T01:04:51.293Z,67.93
2022-11-15T01:06:52.944Z,67.88
2022-11-15T01:08:54.539Z,67.68
2022-11-15T01:11:04.849Z,68.20
2022-11-15T01:13:06.605Z,68.77
2022-11-15T01:15:08.750Z,68.27
2022-11-15T01:17:10.484Z,68.27
2022-11-15T01:19:12.481Z,67.88
2022-11-15T01:21:17.536Z,67.98
2022-11-15T01:23:19.170Z,67.70
2022-11-15T01:25:21.007Z,67.54
2022-11-15T01:27:22.718Z,68.03
2022-11-15T01:29:24.383Z,67.98
2022-11-15T01:31:26.263Z,67.62
2022-11-15T01:33:29.440Z,67.94
2022-11-15T01:35:31.307Z,68.48
2022-11-15T01:37:33.077Z,68.55
2022-11-15T01:39:34.793Z,68.73
2022-11-15T01:41:36.419Z,68.38
2022-11-15T01:43:38.128Z,69.02
2022-11-15T01:45:39.928Z,70.13
2022-11-15T01:47:51.952Z,70.13
2022-11-15T01:50:40.762Z,70.32
2022-11-15T01:52:52.357Z,70.52
2022-11-15T01:55:31.643Z,70.52
2022-11-15T01:57:48.674Z,70.76
2022-11-15T01:59:50.530Z,71.06
2022-11-15T02:01:52.260Z,71.13
2022-11-15T02:03:59.359Z,71.15
2022-11-15T02:06:01.015Z,71.77
2022-11-15T02:08:03.019Z,71.81
2022-11-15T02:10:08.665Z,71.32
2022-11-15T02:12:11.061Z,70.48
2022-11-15T02:14:15.004Z,70.58
2022-11-15T02:16:28.994Z,71.15
2022-11-15T02:18:39.625Z,70.73
2022-11-15T02:20:46.833Z,70.87
2022-11-15T02:23:19.378Z,71.20
2022-11-15T02:25:35.910Z,71.91
2022-11-15T02:27:49.988Z,71.54
2022-11-15T02:30:26.994Z,71.78
2022-11-15T02:32:39.498Z,72.17
2022-11-15T02:34:57.885Z,71.39
2022-11-15T02:37:30.567Z,71.17
2022-11-15T02:39:39.702Z,71.28
2022-11-15T02:41:48.507Z,70.92
2022-11-15T02:44:00.280Z,70.74
2022-11-15T02:46:18.805Z,70.12
2022-11-15T02:48:22.481Z,70.22
2022-11-15T02:50:27.388Z,69.47
2022-11-15T02:52:29.068Z,69.64
2022-11-15T02:54:32.881Z,69.09
2022-11-15T02:56:34.867Z,69.27
2022-11-15T02:58:50.769Z,69.19
2022-11-15T03:01:04.461Z,68.63
2022-11-15T03:03:29.228Z,68.79
2022-11-15T03:05:52.254Z,68.83
2022-11-15T03:08:02.442Z,69.03
2022-11-15T03:10:10.783Z,69.06
2022-11-15T03:12:36.676Z,69.28
2022-11-15T03:15:04.679Z,69.15
2022-11-15T03:17:25.543Z,68.85
2022-11-15T03:19:35.268Z,68.94
2022-11-15T03:21:38.634Z,68.63
2022-11-15T03:23:41.214Z,69.13
2022-11-15T03:25:47.100Z,68.95
2022-11-15T03:27:53.283Z,69.25
2022-11-15T03:29:59.353Z,68.90
2022-11-15T03:32:05.225Z,69.31
2022-11-15T03:34:09.446Z,69.83
2022-11-15T03:36:11.607Z,70.25
2022-11-15T03:38:21.302Z,70.46
2022-11-15T03:40:29.043Z,70.80
2022-11-15T03:43:01.579Z,71.35
2022-11-15T03:45:11.768Z,71.36
2022-11-15T03:47:34.282Z,71.31
2022-11-15T03:49:37.768Z,71.05
2022-11-15T03:51:39.869Z,71.38
2022-11-15T03:53:42.320Z,71.25
2022-11-15T03:55:44.034Z,71.50
2022-11-15T03:57:46.219Z,71.43
2022-11-15T03:59:47.903Z,71.47
2022-11-15T04:01:49.577Z,71.44
2022-11-15T04:03:51.349Z,72.03
2022-11-15T04:05:52.994Z,72.47
2022-11-15T04:07:54.584Z,71.77
2022-11-15T04:10:06.521Z,71.87
2022-11-15T04:12:08.165Z,71.73
2022-11-15T04:14:09.860Z,72.12
2022-11-15T04:16:11.669Z,71.82
2022-11-15T04:18:13.411Z,71.61
2022-11-15T04:20:38.192Z,71.49
2022-11-15T04:22:58.408Z,71.71
2022-11-15T04:25:00.042Z,71.67
2022-11-15T04:27:02.285Z,71.74
2022-11-15T04:29:22.282Z,71.52
2022-11-15T04:31:24.151Z,71.51
2022-11-15T04:33:26.013Z,71.45
2022-11-15T04:35:28.069Z,72.58
2022-11-15T04:37:29.739Z,72.98
2022-11-15T04:39:31.478Z,73.26
2022-11-15T04:41:33.091Z,74.63
2022-11-15T04:43:34.990Z,75.57
2022-11-15T04:45:36.825Z,75.50
2022-11-15T04:47:38.547Z,75.99
2022-11-15T04:49:40.212Z,77.28
2022-11-15T04:51:41.885Z,77.47
2022-11-15T04:53:43.790Z,76.79
2022-11-15T04:55:47.089Z,76.03
2022-11-15T04:57:48.805Z,76.06
2022-11-15T04:59:50.509Z,76.29
2022-11-15T05:01:52.218Z,76.64
2022-11-15T05:04:29.421Z,75.87
2022-11-15T05:06:31.719Z,76.53
2022-11-15T05:08:33.575Z,76.10
2022-11-15T05:10:35.224Z,76.14
2022-11-15T05:12:37.246Z,75.67
2022-11-15T05:14:38.853Z,76.59
2022-11-15T05:16:40.722Z,78.04
2022-11-15T05:18:42.526Z,77.36
2022-11-15T05:20:44.194Z,78.08
2022-11-15T05:22:45.855Z,77.95
2022-11-15T05:24:47.486Z,77.62
2022-11-15T05:26:49.155Z,77.25
2022-11-15T05:28:57.962Z,77.05
2022-11-15T05:31:03.654Z,76.03
2022-11-15T05:33:05.550Z,75.68
2022-11-15T05:35:08.405Z,74.76
2022-11-15T05:37:10.106Z,74.04
2022-11-15T05:39:11.819Z,74.18
2022-11-15T05:41:14.085Z,73.91
2022-11-15T05:43:15.748Z,73.80
2022-11-15T05:45:21.285Z,73.53
2022-11-15T05:47:27.808Z,73.82
2022-11-15T05:49:33.482Z,73.94
2022-11-15T05:51:35.337Z,74.13
2022-11-15T05:53:37.747Z,74.04
2022-11-15T05:55:40.380Z,73.79
2022-11-15T05:57:42.243Z,73.47
2022-11-15T05:59:44.535Z,73.50
2022-11-15T06:01:46.225Z,73.47
2022-11-15T06:03:48.020Z,74.09
2022-11-15T06:05:49.601Z,73.98
2022-11-15T06:07:51.316Z,74.04
2022-11-15T06:09:52.991Z,74.08
2022-11-15T06:11:54.646Z,73.56
2022-11-15T06:13:57.438Z,73.88
2022-11-15T06:15:59.540Z,74.40
2022-11-15T06:18:01.371Z,76.58
2022-11-15T06:20:03.186Z,77.83
2022-11-15T06:22:04.904Z,79.20
2022-11-15T06:24:06.998Z,79.74
2022-11-15T06:26:08.633Z,80.17
2022-11-15T06:28:10.259Z,81.37
2022-11-15T06:30:11.916Z,81.02
2022-11-15T06:32:13.542Z,81.36
2022-11-15T06:34:15.396Z,80.56
2022-11-15T06:36:18.259Z,80.86
2022-11-15T06:38:20.152Z,81.59
2022-11-15T06:40:21.874Z,80.93
2022-11-15T06:42:23.461Z,79.40
2022-11-15T06:44:25.113Z,79.30
2022-11-15T06:46:26.868Z,79.41
2022-11-15T06:48:29.351Z,79.37
2022-11-15T06:50:31.045Z,79.64
2022-11-15T06:52:33.648Z,79.53
2022-11-15T06:54:35.240Z,78.81
2022-11-15T06:56:36.838Z,78.10
2022-11-15T06:58:38.695Z,77.82
2022-11-15T07:00:40.610Z,76.98
2022-11-15T07:02:42.235Z,76.93
2022-11-15T07:04:43.923Z,75.70
2022-11-15T07:06:48.821Z,75.22
2022-11-15T07:08:50.673Z,74.39
2022-11-15T07:10:53.039Z,73.48
2022-11-15T07:12:55.347Z,74.92
2022-11-15T07:14:57.126Z,76.45
2022-11-15T07:16:58.825Z,76.42
2022-11-15T07:19:00.465Z,76.73
2022-11-15T07:21:07.090Z,76.45
2022-11-15T07:23:08.724Z,76.62
2022-11-15T07:25:10.704Z,77.42
2022-11-15T07:27:12.425Z,77.35
2022-11-15T07:29:14.404Z,77.18
2022-11-15T07:31:16.183Z,76.66
2022-11-15T07:33:17.762Z,76.02
2022-11-15T07:35:19.389Z,75.43
2022-11-15T07:37:21.075Z,74.38
2022-11-15T07:39:22.788Z,74.08
2022-11-15T07:41:24.500Z,73.69
2022-11-15T07:43:28.985Z,73.43
2022-11-15T07:45:30.979Z,72.97
2022-11-15T07:47:32.616Z,73.15
2022-11-15T07:49:34.314Z,73.25
2022-11-15T07:51:35.928Z,74.33
2022-11-15T07:53:37.576Z,74.74
2022-11-15T07:55:41.683Z,74.20
2022-11-15T07:57:43.304Z,73.71
2022-11-15T07:59:44.903Z,73.69
2022-11-15T08:01:46.570Z,75.06
2022-11-15T08:03:48.368Z,75.66
2022-11-15T08:05:53.327Z,76.33
2022-11-15T08:07:57.036Z,77.45
2022-11-15T08:09:59.513Z,76.90
2022-11-15T08:12:01.446Z,76.29
2022-11-15T08:14:03.095Z,75.59
2022-11-15T08:16:06.675Z,74.79
2022-11-15T08:18:12.764Z,76.13
2022-11-15T08:20:14.713Z,76.53
2022-11-15T08:22:16.327Z,77.43
2022-11-15T08:24:17.921Z,76.58
2022-11-15T08:26:19.704Z,75.79
2022-11-15T08:28:22.038Z,76.84
2022-11-15T08:30:24.983Z,77.40
2022-11-15T08:32:26.619Z,76.77
2022-11-15T08:34:28.260Z,75.88
2022-11-15T08:36:34.783Z,75.50
2022-11-15T08:38:43.728Z,74.18
2022-11-15T08:40:45.337Z,73.06
2022-11-15T08:42:48.019Z,73.15
2022-11-15T08:44:49.628Z,72.49
2022-11-15T08:46:51.487Z,72.23
2022-11-15T08:48:53.073Z,72.25
2022-11-15T08:50:56.318Z,72.20
2022-11-15T08:52:58.017Z,72.99
2022-11-15T08:54:59.683Z,72.69
2022-11-15T08:57:01.306Z,73.06
2022-11-15T08:59:02.900Z,72.79
2022-11-15T09:01:05.554Z,73.22
2022-11-15T09:03:08.332Z,72.37
2022-11-15T09:05:09.945Z,73.01
2022-11-15T09:07:12.507Z,73.65
2022-11-15T09:09:14.280Z,73.65
2022-11-15T09:11:17.560Z,73.80
2022-11-15T09:13:19.222Z,73.64
2022-11-15T09:15:20.894Z,74.25
2022-11-15T09:17:25.059Z,74.73
2022-11-15T09:19:27.195Z,75.49
2022-11-15T09:21:30.607Z,76.11
2022-11-15T09:23:32.224Z,76.13
2022-11-15T09:25:34.140Z,75.77
2022-11-15T09:29:55.528Z,75.01
2022-11-15T09:31:57.094Z,74.51
2022-11-15T09:33:58.988Z,74.07
2022-11-15T09:36:09.051Z,74.43
2022-11-15T09:38:10.666Z,73.41
2022-11-15T09:40:18.554Z,72.29
2022-11-15T09:42:36.708Z,72.27
2022-11-15T09:44:51.335Z,71.78
2022-11-15T09:47:01.946Z,70.52
2022-11-15T09:49:04.426Z,70.00
2022-11-15T09:51:10.320Z,69.14
2022-11-15T09:54:13.607Z,68.83
2022-11-15T09:56:17.230Z,68.44
2022-11-15T09:58:37.131Z,68.39
2022-11-15T10:00:49.727Z,68.11
2022-11-15T10:03:13.006Z,67.23
2022-11-15T10:05:19.731Z,67.87
2022-11-15T10:07:34.321Z,67.55
2022-11-15T10:10:04.341Z,66.60
2022-11-15T10:12:07.347Z,65.90
2022-11-15T10:14:24.777Z,66.43
2022-11-15T10:16:53.068Z,66.06
2022-11-15T10:19:15.796Z,65.89
2022-11-15T10:21:21.462Z,65.17
2022-11-15T10:23:24.056Z,65.75
2022-11-15T10:25:28.242Z,65.04
2022-11-15T10:27:30.579Z,64.89
2022-11-15T10:29:32.178Z,64.40
2022-11-15T10:31:33.797Z,63.88
2022-11-15T10:33:40.051Z,63.86
2022-11-15T10:35:42.586Z,62.70
2022-11-15T10:37:44.197Z,62.93
2022-11-15T10:42:19.820Z,61.68
2022-11-15T10:44:23.073Z,61.68
2022-11-15T10:46:45.479Z,61.14
2022-11-15T10:48:47.402Z,61.22
2022-11-15T10:50:50.095Z,61.02
2022-11-15T10:52:51.776Z,62.85
2022-11-15T10:55:05.790Z,62.93
2022-11-15T10:57:16.455Z,63.26
2022-11-15T10:59:38.759Z,62.24
2022-11-15T11:01:47.441Z,61.42
2022-11-15T11:04:08.640Z,61.31
2022-11-15T11:06:18.228Z,61.18
2022-11-15T11:08:24.717Z,60.65
2022-11-15T11:10:50.457Z,60.04
2022-11-15T11:12:48.874Z,60.78
2022-11-15T11:14:50.471Z,60.80
2022-11-15T11:16:56.944Z,61.17
2022-11-15T11:19:24.784Z,60.76
2022-11-15T11:21:48.068Z,62.31
2022-11-15T11:23:53.949Z,63.10
2022-11-15T11:26:26.768Z,63.41
2022-11-15T11:28:41.673Z,62.63
2022-11-15T11:31:11.277Z,61.99
2022-11-15T11:33:23.047Z,62.00
2022-11-15T11:35:49.088Z,63.63
2022-11-15T11:38:11.083Z,64.48
2022-11-15T11:40:40.653Z,65.76
2022-11-15T11:42:49.209Z,66.13
2022-11-15T11:45:24.744Z,66.39
2022-11-15T11:47:34.724Z,66.59
2022-11-15T11:50:02.012Z,66.06
2022-11-15T11:52:09.704Z,65.99
2022-11-15T11:54:20.565Z,65.91
2022-11-15T11:56:36.511Z,64.48
2022-11-15T11:58:41.505Z,63.78
2022-11-15T12:00:53.166Z,63.58
2022-11-15T12:03:15.720Z,64.32
2022-11-15T12:05:43.329Z,65.07
2022-11-15T12:07:46.108Z,64.92
2022-11-15T12:10:03.215Z,64.71
2022-11-15T12:12:13.870Z,63.19
2022-11-15T12:14:53.224Z,62.65
2022-11-15T12:16:54.858Z,62.29
2022-11-15T12:19:01.165Z,62.83
2022-11-15T12:21:28.845Z,62.70
2022-11-15T12:23:34.165Z,63.82
2022-11-15T12:25:36.373Z,63.93
2022-11-15T12:27:51.987Z,63.70
2022-11-15T12:30:17.787Z,63.04
2022-11-15T12:32:32.775Z,63.56
2022-11-15T12:34:41.957Z,63.54
2022-11-15T12:36:46.546Z,63.91
2022-11-15T12:38:56.890Z,63.78
2022-11-15T12:41:18.960Z,63.84
2022-11-15T12:43:20.602Z,63.37
2022-11-15T12:45:37.789Z,62.45
2022-11-15T12:47:39.399Z,62.60
2022-11-15T12:49:40.946Z,63.32
2022-11-15T12:51:48.530Z,64.11
2022-11-15T12:53:50.351Z,64.52
2022-11-15T12:56:04.162Z,64.54
2022-11-15T12:58:29.302Z,64.14
2022-11-15T13:00:40.243Z,64.11
2022-11-15T13:02:46.481Z,64.42
2022-11-15T13:04:48.893Z,63.28
2022-11-15T13:07:08.560Z,64.10
2022-11-15T13:09:28.729Z,63.34
2022-11-15T13:12:09.175Z,63.29
2022-11-15T13:14:36.051Z,63.65
2022-11-15T13:16:38.197Z,64.11
2022-11-15T13:18:41.168Z,64.26
2022-11-15T13:20:45.942Z,63.58
2022-11-15T13:23:00.585Z,63.78
2022-11-15T13:25:02.766Z,64.07
2022-11-15T13:27:13.991Z,63.80
2022-11-15T13:29:20.383Z,64.12
2022-11-15T13:31:44.473Z,64.10
2022-11-15T13:33:46.343Z,64.13
2022-11-15T13:35:56.328Z,63.88
2022-11-15T13:38:04.955Z,64.36
2022-11-15T13:40:31.124Z,63.32
2022-11-15T13:42:32.916Z,62.78
2022-11-15T13:44:34.823Z,62.93
2022-11-15T13:46:36.599Z,62.72
2022-11-15T13:48:38.415Z,62.46
2022-11-15T13:50:40.402Z,62.12
2022-11-15T13:52:44.277Z,61.92
2022-11-15T13:54:52.093Z,62.01
2022-11-15T13:57:02.237Z,61.96
2022-11-15T13:59:11.530Z,61.89
2022-11-15T14:01:20.777Z,62.00
2022-11-15T14:03:27.108Z,63.29
2022-11-15T14:05:28.858Z,64.09
2022-11-15T14:07:30.960Z,64.20
2022-11-15T14:09:34.477Z,64.02
2022-11-15T14:11:36.304Z,63.92
2022-11-15T14:13:38.002Z,64.03
2022-11-15T14:15:40.223Z,64.37
2022-11-15T14:17:47.200Z,64.80
2022-11-15T14:19:52.271Z,64.81
2022-11-15T14:22:16.075Z,64.83
2022-11-15T14:24:22.288Z,64.41
2022-11-15T14:26:28.669Z,65.04
2022-11-15T14:28:37.554Z,65.52
2022-11-15T14:30:44.159Z,64.92
2022-11-15T14:32:50.465Z,66.91
2022-11-15T14:35:03.729Z,68.88
2022-11-15T14:37:05.517Z,68.48
2022-11-15T14:39:07.220Z,69.40
2022-11-15T14:41:19.488Z,69.69
2022-11-15T14:43:21.137Z,70.26
2022-11-15T14:45:23.246Z,70.43
2022-11-15T14:47:24.856Z,70.14
2022-11-15T14:49:26.559Z,70.22
2022-11-15T14:51:28.182Z,71.11
2022-11-15T14:53:29.910Z,71.43
2022-11-15T14:55:37.260Z,72.22
2022-11-15T14:57:38.957Z,72.60
2022-11-15T14:59:40.594Z,73.03
2022-11-15T15:01:42.408Z,73.15
2022-11-15T15:03:45.188Z,74.45
2022-11-15T15:05:47.035Z,73.96
2022-11-15T15:07:49.449Z,73.54
2022-11-15T15:09:51.213Z,73.74
2022-11-15T15:11:55.693Z,72.81
2022-11-15T15:13:59.248Z,72.50
2022-11-15T15:16:00.878Z,72.45
2022-11-15T15:18:03.606Z,71.75
2022-11-15T15:20:05.659Z,71.73
2022-11-15T15:22:09.681Z,71.11
2022-11-15T15:24:17.430Z,70.63
2022-11-15T15:26:19.136Z,71.35
2022-11-15T15:28:20.831Z,71.14
2022-11-15T15:30:28.373Z,71.29
2022-11-15T15:32:30.133Z,70.37
2022-11-15T15:34:31.921Z,69.91
2022-11-15T15:36:33.534Z,69.98
2022-11-15T15:38:35.657Z,69.27
2022-11-15T15:40:37.458Z,68.90
2022-11-15T15:42:39.060Z,68.05
2022-11-15T15:44:40.729Z,68.40
2022-11-15T15:46:42.334Z,68.07
2022-11-15T15:48:44.884Z,68.18
2022-11-15T15:50:46.576Z,67.98
2022-11-15T15:52:48.454Z,67.92
2022-11-15T15:54:50.165Z,67.49
2022-11-15T15:56:56.085Z,67.69
2022-11-15T15:58:58.002Z,67.46
2022-11-15T16:00:59.779Z,67.38
2022-11-15T16:03:01.806Z,68.03
2022-11-15T16:05:03.868Z,68.24
2022-11-15T16:07:05.558Z,68.64
2022-11-15T16:09:15.023Z,68.25
2022-11-15T16:11:18.027Z,68.32
2022-11-15T16:13:19.743Z,68.43
2022-11-15T16:15:22.682Z,67.90
2022-11-15T16:17:32.851Z,68.36
2022-11-15T16:19:35.734Z,69.25
2022-11-15T16:21:37.536Z,69.94
2022-11-15T16:23:40.193Z,69.62
2022-11-15T16:25:43.201Z,70.03
2022-11-15T16:27:46.071Z,69.99
2022-11-15T16:29:48.344Z,70.04
2022-11-15T16:31:49.992Z,70.67
2022-11-15T16:33:51.639Z,70.35
2022-11-15T16:35:53.280Z,70.52
2022-11-15T16:37:55.182Z,70.36
2022-11-15T16:40:00.818Z,69.41
2022-11-15T16:42:03.552Z,69.71
2022-11-15T16:44:05.161Z,72.01
2022-11-15T16:46:20.355Z,73.43
2022-11-15T16:48:28.439Z,73.29
2022-11-15T16:50:32.891Z,72.87
2022-11-15T16:52:34.558Z,72.48
2022-11-15T16:54:38.540Z,71.98
2022-11-15T16:56:40.636Z,71.04
2022-11-15T16:58:53.103Z,71.10
2022-11-15T17:00:58.872Z,70.15
2022-11-15T17:03:00.523Z,70.48
2022-11-15T17:05:07.058Z,70.32
2022-11-15T17:07:11.674Z,69.63
2022-11-15T17:09:24.493Z,69.62
2022-11-15T17:11:26.221Z,69.54
2022-11-15T17:13:27.889Z,70.09
2022-11-15T17:15:29.548Z,70.28
2022-11-15T17:17:31.831Z,70.48
2022-11-15T17:19:33.612Z,70.43
2022-11-15T17:21:35.165Z,70.39
2022-11-15T17:23:36.906Z,70.43
2022-11-15T17:25:38.578Z,70.49
2022-11-15T17:27:40.707Z,70.48
2022-11-15T17:29:42.727Z,70.02
2022-11-15T17:31:44.702Z,70.15
2022-11-15T17:33:46.289Z,70.08
2022-11-15T17:35:58.398Z,70.06
2022-11-15T17:38:00.019Z,70.16
2022-11-15T17:40:01.711Z,69.64
2022-11-15T17:42:03.366Z,69.77
2022-11-15T17:44:05.193Z,70.28
2022-11-15T17:46:13.255Z,70.09
2022-11-15T17:48:14.973Z,70.41
2022-11-15T17:50:18.051Z,69.80
2022-11-15T17:52:19.948Z,69.51
2022-11-15T17:54:21.664Z,69.44
2022-11-15T17:56:24.820Z,70.10
2022-11-15T17:58:26.576Z,71.99
2022-11-15T18:00:28.239Z,72.91
2022-11-15T18:02:30.556Z,72.54
2022-11-15T18:04:32.299Z,72.09
2022-11-15T18:06:35.149Z,71.83
2022-11-15T18:08:37.811Z,72.83
2022-11-15T18:10:39.626Z,73.35
2022-11-15T18:12:41.243Z,73.42
2022-11-15T18:14:43.073Z,72.94
2022-11-15T18:16:44.810Z,71.77
2022-11-15T18:18:46.609Z,71.43
2022-11-15T18:20:48.201Z,71.69
2022-11-15T18:22:53.218Z,70.89
2022-11-15T18:24:54.975Z,70.27
2022-11-15T18:26:57.958Z,69.71
2022-11-15T18:29:04.577Z,70.41
2022-11-15T18:31:16.844Z,69.73
2022-11-15T18:33:19.624Z,69.62
2022-11-15T18:35:21.273Z,69.61
2022-11-15T18:37:22.988Z,69.99
2022-11-15T18:39:24.656Z,70.17
2022-11-15T18:41:29.871Z,69.65
2022-11-15T18:43:31.828Z,69.60
2022-11-15T18:45:36.556Z,70.07
2022-11-15T18:47:38.181Z,70.20
2022-11-15T18:49:39.897Z,69.39
2022-11-15T18:51:44.401Z,69.82
2022-11-15T18:53:46.405Z,69.83
2022-11-15T18:55:48.004Z,69.91
2022-11-15T18:57:49.579Z,70.01
2022-11-15T18:59:51.276Z,70.84
2022-11-15T19:01:53.049Z,70.55
2022-11-15T19:03:56.909Z,69.59
2022-11-15T19:06:29.039Z,70.27
2022-11-15T19:08:42.109Z,69.55
2022-11-15T19:10:43.751Z,69.03
2022-11-15T19:12:47.216Z,69.25
2022-11-15T19:14:48.931Z,69.34
2022-11-15T19:16:52.450Z,68.87
2022-11-15T19:18:58.873Z,68.95
2022-11-15T19:21:04.636Z,69.71
2022-11-15T19:23:06.492Z,69.47
2022-11-15T19:25:08.821Z,69.53
2022-11-15T19:27:10.509Z,69.14
2022-11-15T19:29:12.297Z,69.42
2022-11-15T19:31:15.439Z,69.64
2022-11-15T19:33:17.254Z,69.65
2022-11-15T19:35:18.954Z,69.55
2022-11-15T19:37:20.563Z,69.75
2022-11-15T19:39:22.382Z,69.57
2022-11-15T19:41:25.254Z,69.54
2022-11-15T19:43:27.325Z,69.84
2022-11-15T19:45:29.041Z,69.53
2022-11-15T19:47:30.730Z,69.41
2022-11-15T19:49:32.421Z,69.43
2022-11-15T19:51:34.121Z,68.87
2022-11-15T19:53:36.737Z,69.72
2022-11-15T19:55:38.644Z,69.54
2022-11-15T19:57:40.260Z,69.89
2022-11-15T19:59:41.888Z,70.71
2022-11-15T20:01:43.744Z,71.91
2022-11-15T20:03:46.040Z,73.11
2022-11-15T20:05:47.751Z,73.71
2022-11-15T20:07:49.472Z,74.28
2022-11-15T20:09:51.066Z,75.82
2022-11-15T20:11:52.879Z,76.72
2022-11-15T20:13:59.019Z,77.01
2022-11-15T20:16:00.799Z,76.81
2022-11-15T20:18:02.513Z,75.93
2022-11-15T20:20:04.703Z,74.71
2022-11-15T20:22:06.252Z,73.91
2022-11-15T20:24:08.380Z,73.00
2022-11-15T20:26:10.756Z,72.58
2022-11-15T20:28:26.343Z,71.88
2022-11-15T20:30:28.000Z,71.59
2022-11-15T20:32:31.172Z,71.13
2022-11-15T20:34:32.832Z,70.77
2022-11-15T20:36:34.499Z,70.48
2022-11-15T20:38:36.399Z,70.30
2022-11-15T20:40:39.368Z,70.41
2022-11-15T20:42:41.187Z,70.61
2022-11-15T20:44:42.748Z,70.64
2022-11-15T20:46:44.491Z,70.39
2022-11-15T20:48:46.140Z,70.42
2022-11-15T20:50:48.019Z,70.54
2022-11-15T20:52:49.723Z,69.92
2022-11-15T20:54:51.402Z,70.36
2022-11-15T20:56:53.070Z,70.10
2022-11-15T20:58:56.504Z,70.48
2022-11-15T21:00:58.367Z,70.12
2022-11-15T21:03:00.039Z,69.54
2022-11-15T21:05:02.305Z,69.93
2022-11-15T21:07:04.502Z,70.52
2022-11-15T21:09:24.845Z,69.99
2022-11-15T21:11:44.876Z,69.85
2022-11-15T21:13:46.521Z,69.71
2022-11-15T21:15:48.557Z,69.94
2022-11-15T21:17:50.232Z,69.77
2022-11-15T21:19:51.951Z,70.01
2022-11-15T21:21:53.696Z,70.58
2022-11-15T21:23:55.249Z,69.53
2022-11-15T21:25:56.996Z,69.80
2022-11-15T21:27:58.650Z,70.51
2022-11-15T21:30:00.339Z,70.58
2022-11-15T21:32:06.837Z,69.88
2022-11-15T21:34:08.811Z,69.58
2022-11-15T21:36:10.426Z,70.28
2022-11-15T21:38:12.113Z,69.93
2022-11-15T21:40:13.791Z,69.66
2022-11-15T21:42:15.413Z,69.83
2022-11-15T21:44:17.197Z,69.76
2022-11-15T21:46:18.827Z,69.83
2022-11-15T21:48:20.557Z,69.35
2022-11-15T21:50:22.530Z,69.39
2022-11-15T21:52:28.483Z,69.82
2022-11-15T21:54:30.112Z,69.50
2022-11-15T21:56:32.441Z,69.43
2022-11-15T21:58:34.810Z,69.49
2022-11-15T22:00:55.453Z,69.66
2022-11-15T22:02:57.138Z,69.44
2022-11-15T22:04:58.961Z,69.71
2022-11-15T22:07:00.589Z,70.16
2022-11-15T22:09:03.127Z,69.34
2022-11-15T22:11:04.855Z,69.89
2022-11-15T22:13:06.539Z,69.88
2022-11-15T22:15:08.420Z,68.86
2022-11-15T22:17:13.205Z,69.92
2022-11-15T22:19:15.105Z,70.98
2022-11-15T22:21:17.940Z,72.51
2022-11-15T22:23:19.703Z,73.03
2022-11-15T22:25:21.396Z,72.49
2022-11-15T22:27:23.105Z,73.52
2022-11-15T22:29:24.809Z,73.36
2022-11-15T22:31:26.624Z,74.38
2022-11-15T22:33:30.092Z,74.82
2022-11-15T22:35:31.873Z,74.43
2022-11-15T22:37:33.648Z,74.19
2022-11-15T22:39:35.335Z,72.96
2022-11-15T22:41:37.102Z,72.76
2022-11-15T22:43:38.742Z,72.44
2022-11-15T22:45:50.475Z,71.91
2022-11-15T22:47:52.257Z,71.83
2022-11-15T22:49:53.954Z,72.35
2022-11-15T22:51:55.634Z,72.94
2022-11-15T22:53:57.576Z,72.13
2022-11-15T22:56:01.236Z,72.55
2022-11-15T22:58:02.930Z,72.28
2022-11-15T23:00:11.242Z,72.60
2022-11-15T23:02:12.916Z,72.52
2022-11-15T23:04:14.701Z,73.01
2022-11-15T23:06:16.854Z,73.26
2022-11-15T23:08:19.468Z,73.21
2022-11-15T23:10:39.677Z,72.74
2022-11-15T23:13:00.113Z,72.52
2022-11-15T23:15:01.930Z,71.92
2022-11-15T23:17:03.873Z,71.82
2022-11-15T23:19:08.468Z,71.84
2022-11-15T23:21:14.110Z,71.25
2022-11-15T23:23:15.749Z,70.92
2022-11-15T23:25:17.502Z,70.84
2022-11-15T23:27:20.819Z,71.28
2022-11-15T23:29:24.941Z,71.39
2022-11-15T23:31:45.438Z,72.22
2022-11-15T23:33:59.060Z,72.64
2022-11-15T23:36:00.849Z,72.18
2022-11-15T23:38:02.557Z,72.47
2022-11-15T23:40:05.354Z,72.24
2022-11-15T23:42:09.296Z,72.03
2022-11-15T23:44:11.481Z,71.99
2022-11-15T23:46:13.305Z,71.14
2022-11-15T23:48:14.982Z,71.62
2022-11-15T23:50:17.183Z,72.00
2022-11-15T23:52:19.003Z,71.61
2022-11-15T23:54:20.831Z,72.29
2022-11-15T23:56:23.008Z,72.26
2022-11-15T23:58:24.703Z,72.41
